createdAt,value
2019-03-01T00:00:31.726Z,48.30
2019-03-01T00:01:31.736Z,48.30
2019-03-01T00:02:31.703Z,50.40
2019-03-01T00:03:31.688Z,51.50
2019-03-01T00:04:31.684Z,48.00
2019-03-01T00:05:31.667Z,50.30
2019-03-01T00:06:31.681Z,48.60
2019-03-01T00:07:31.649Z,53.30
2019-03-01T00:08:31.639Z,51.00
2019-03-01T00:09:31.623Z,59.50
2019-03-01T00:10:31.613Z,54.40
2019-03-01T00:11:31.834Z,52.80
2019-03-01T00:12:31.594Z,52.50
2019-03-01T00:13:31.582Z,50.90
2019-03-01T00:14:31.572Z,48.70
2019-03-01T00:15:31.563Z,47.50
2019-03-01T00:16:31.581Z,50.80
2019-03-01T00:17:31.539Z,51.50
2019-03-01T00:18:31.530Z,50.60
2019-03-01T00:19:31.522Z,52.00
2019-03-01T00:20:31.508Z,49.60
2019-03-01T00:21:31.530Z,52.20
2019-03-01T00:22:31.486Z,50.80
2019-03-01T00:23:31.479Z,51.50
2019-03-01T00:24:31.464Z,51.90
2019-03-01T00:25:31.457Z,49.10
2019-03-01T00:26:31.490Z,47.60
2019-03-01T00:27:31.432Z,47.80
2019-03-01T00:28:31.419Z,50.70
2019-03-01T00:29:31.413Z,48.70
2019-03-01T00:30:31.417Z,50.90
2019-03-01T00:31:31.412Z,49.80
2019-03-01T00:32:31.380Z,52.40
2019-03-01T00:33:31.370Z,52.30
2019-03-01T00:34:31.357Z,48.60
2019-03-01T00:35:31.344Z,53.70
2019-03-01T00:36:31.356Z,51.20
2019-03-01T00:37:31.327Z,50.80
2019-03-01T00:38:31.361Z,51.50
2019-03-01T00:39:31.305Z,50.00
2019-03-01T00:40:31.294Z,51.00
2019-03-01T00:41:31.317Z,52.70
2019-03-01T00:42:31.267Z,54.00
2019-03-01T00:43:31.265Z,50.10
2019-03-01T00:44:31.254Z,49.40
2019-03-01T00:45:31.244Z,49.40
2019-03-01T00:46:31.250Z,50.90
2019-03-01T00:47:31.215Z,50.50
2019-03-01T00:48:31.219Z,51.50
2019-03-01T00:49:31.193Z,51.30
2019-03-01T00:50:31.183Z,47.90
2019-03-01T00:51:31.197Z,49.90
2019-03-01T00:52:31.161Z,51.70
2019-03-01T00:53:31.148Z,50.80
2019-03-01T00:54:31.140Z,48.50
2019-03-01T00:55:31.132Z,48.80
2019-03-01T00:56:31.148Z,47.80
2019-03-01T00:57:31.106Z,47.60
2019-03-01T00:58:31.096Z,51.00
2019-03-01T00:59:31.087Z,50.30
2019-03-01T01:00:31.075Z,50.10
2019-03-01T01:01:31.083Z,50.40
2019-03-01T01:02:31.058Z,48.20
2019-03-01T01:03:38.717Z,48.60
2019-03-01T01:04:31.040Z,50.10
2019-03-01T01:05:31.016Z,48.60
2019-03-01T01:06:31.043Z,49.80
2019-03-01T01:07:31.000Z,49.10
2019-03-01T01:08:30.984Z,50.50
2019-03-01T01:09:30.980Z,48.60
2019-03-01T01:10:30.973Z,48.40
2019-03-01T01:11:30.983Z,50.10
2019-03-01T01:12:30.942Z,47.40
2019-03-01T01:13:30.934Z,46.90
2019-03-01T01:14:30.920Z,49.30
2019-03-01T01:15:30.910Z,47.60
2019-03-01T01:16:30.923Z,47.10
2019-03-01T01:17:30.904Z,47.30
2019-03-01T01:18:30.877Z,49.50
2019-03-01T01:19:30.867Z,48.90
2019-03-01T01:20:30.852Z,50.40
2019-03-01T01:21:30.866Z,49.70
2019-03-01T01:22:30.831Z,50.80
2019-03-01T01:23:30.823Z,49.60
2019-03-01T01:24:30.820Z,49.70
2019-03-01T01:25:30.800Z,48.90
2019-03-01T01:26:30.814Z,49.50
2019-03-01T01:27:30.791Z,45.40
2019-03-01T01:28:30.768Z,48.90
2019-03-01T01:29:30.757Z,46.30
2019-03-01T01:30:30.748Z,46.20
2019-03-01T01:31:30.772Z,49.70
2019-03-01T01:32:30.731Z,48.70
2019-03-01T01:33:30.728Z,50.60
2019-03-01T01:34:30.700Z,48.20
2019-03-01T01:35:30.695Z,50.10
2019-03-01T01:36:30.681Z,49.60
2019-03-01T01:37:30.697Z,51.60
2019-03-01T01:38:30.660Z,49.10
2019-03-01T01:39:30.651Z,47.00
2019-03-01T01:40:30.638Z,48.00
2019-03-01T01:41:30.630Z,50.70
2019-03-01T01:42:30.639Z,50.20
2019-03-01T01:43:30.611Z,49.30
2019-03-01T01:44:30.597Z,49.90
2019-03-01T01:45:30.581Z,50.60
2019-03-01T01:46:30.572Z,49.10
2019-03-01T01:47:30.583Z,51.30
2019-03-01T01:48:30.550Z,49.60
2019-03-01T01:49:30.536Z,48.80
2019-03-01T01:50:30.537Z,49.60
2019-03-01T01:51:30.517Z,50.50
2019-03-01T01:52:30.532Z,49.00
2019-03-01T01:53:30.505Z,49.70
2019-03-01T01:54:30.488Z,49.60
2019-03-01T01:55:30.474Z,49.20
2019-03-01T01:56:30.475Z,49.10
2019-03-01T01:57:30.480Z,49.70
2019-03-01T01:58:30.440Z,51.80
2019-03-01T01:59:30.432Z,52.20
2019-03-01T02:00:30.420Z,51.40
2019-03-01T02:01:30.416Z,50.70
2019-03-01T02:02:30.417Z,53.60
2019-03-01T02:03:30.387Z,50.50
2019-03-01T02:04:30.377Z,53.90
2019-03-01T02:05:30.372Z,51.90
2019-03-01T02:06:30.353Z,52.00
2019-03-01T02:07:30.369Z,52.80
2019-03-01T02:08:30.332Z,51.80
2019-03-01T02:09:30.319Z,53.30
2019-03-01T02:10:30.310Z,52.50
2019-03-01T02:11:30.295Z,53.10
2019-03-01T02:12:30.318Z,53.80
2019-03-01T02:13:30.287Z,51.50
2019-03-01T02:14:30.267Z,55.70
2019-03-01T02:15:30.252Z,57.60
2019-03-01T02:16:30.260Z,55.10
2019-03-01T02:17:30.256Z,52.80
2019-03-01T02:18:30.224Z,53.90
2019-03-01T02:19:30.214Z,55.30
2019-03-01T02:20:30.199Z,54.90
2019-03-01T02:21:30.192Z,53.50
2019-03-01T02:22:30.208Z,56.00
2019-03-01T02:23:30.167Z,54.80
2019-03-01T02:24:30.161Z,55.50
2019-03-01T02:25:30.148Z,54.90
2019-03-01T02:26:30.137Z,55.10
2019-03-01T02:27:30.147Z,53.80
2019-03-01T02:28:30.137Z,52.10
2019-03-01T02:29:30.104Z,53.00
2019-03-01T02:30:30.168Z,57.00
2019-03-01T02:31:30.081Z,54.90
2019-03-01T02:32:30.100Z,56.10
2019-03-01T02:33:30.060Z,55.80
2019-03-01T02:34:30.051Z,54.30
2019-03-01T02:35:30.040Z,55.90
2019-03-01T02:36:30.025Z,56.80
2019-03-01T02:37:30.049Z,57.10
2019-03-01T02:38:30.017Z,54.90
2019-03-01T02:39:29.991Z,56.10
2019-03-01T02:40:29.987Z,57.80
2019-03-01T02:41:29.981Z,56.90
2019-03-01T02:42:29.997Z,57.60
2019-03-01T02:43:29.948Z,57.40
2019-03-01T02:44:29.950Z,55.50
2019-03-01T02:45:29.933Z,59.30
2019-03-01T02:46:29.919Z,57.70
2019-03-01T02:47:29.928Z,58.60
2019-03-01T02:48:29.896Z,57.10
2019-03-01T02:49:29.887Z,60.90
2019-03-01T02:50:29.912Z,57.20
2019-03-01T02:51:29.865Z,60.60
2019-03-01T02:52:29.877Z,58.30
2019-03-01T02:53:29.844Z,58.50
2019-03-01T02:54:29.828Z,59.60
2019-03-01T02:55:29.817Z,57.90
2019-03-01T02:56:29.885Z,57.70
2019-03-01T02:57:29.822Z,57.10
2019-03-01T02:58:29.788Z,58.20
2019-03-01T02:59:29.771Z,60.90
2019-03-01T03:00:29.769Z,56.80
2019-03-01T03:01:29.761Z,58.70
2019-03-01T03:02:29.793Z,59.60
2019-03-01T03:03:29.734Z,59.50
2019-03-01T03:04:29.733Z,58.40
2019-03-01T03:05:29.729Z,61.00
2019-03-01T03:06:29.704Z,59.30
2019-03-01T03:07:29.717Z,59.70
2019-03-01T03:08:29.680Z,58.30
2019-03-01T03:09:29.670Z,60.40
2019-03-01T03:10:29.725Z,55.40
2019-03-01T03:11:29.647Z,59.70
2019-03-01T03:12:29.687Z,58.20
2019-03-01T03:13:29.623Z,60.70
2019-03-01T03:14:29.622Z,59.50
2019-03-01T03:15:29.603Z,60.40
2019-03-01T03:16:29.593Z,58.40
2019-03-01T03:17:29.581Z,59.30
2019-03-01T03:18:29.594Z,59.30
2019-03-01T03:19:29.560Z,58.30
2019-03-01T03:20:29.553Z,61.10
2019-03-01T03:21:29.543Z,62.00
2019-03-01T03:22:29.540Z,65.90
2019-03-01T03:23:29.541Z,63.40
2019-03-01T03:24:29.509Z,66.80
2019-03-01T03:25:29.497Z,67.60
2019-03-01T03:26:29.569Z,66.80
2019-03-01T03:27:29.485Z,65.40
2019-03-01T03:28:29.492Z,65.50
2019-03-01T03:29:29.449Z,66.50
2019-03-01T03:30:29.473Z,66.30
2019-03-01T03:31:29.442Z,66.10
2019-03-01T03:32:29.435Z,67.50
2019-03-01T03:33:29.471Z,71.30
2019-03-01T03:34:29.415Z,67.20
2019-03-01T03:35:29.383Z,69.00
2019-03-01T03:36:29.377Z,71.10
2019-03-01T03:37:29.370Z,69.40
2019-03-01T03:38:29.379Z,67.40
2019-03-01T03:39:29.340Z,68.70
2019-03-01T03:40:29.340Z,67.40
2019-03-01T03:41:29.321Z,68.00
2019-03-01T03:42:29.312Z,66.10
2019-03-01T03:43:29.321Z,67.90
2019-03-01T03:44:29.297Z,65.80
2019-03-01T03:45:29.281Z,65.20
2019-03-01T03:46:29.271Z,66.70
2019-03-01T03:47:29.253Z,69.10
2019-03-01T03:48:29.277Z,68.60
2019-03-01T03:49:29.240Z,71.40
2019-03-01T03:50:29.259Z,65.90
2019-03-01T03:51:29.228Z,68.50
2019-03-01T03:52:29.231Z,68.70
2019-03-01T03:53:29.217Z,71.30
2019-03-01T03:54:29.179Z,67.60
2019-03-01T03:55:29.182Z,67.40
2019-03-01T03:56:29.159Z,68.80
2019-03-01T03:57:29.145Z,69.30
2019-03-01T03:58:29.165Z,70.50
2019-03-01T03:59:29.130Z,67.20
2019-03-01T04:00:29.120Z,68.80
2019-03-01T04:01:29.117Z,69.90
2019-03-01T04:02:29.092Z,71.70
2019-03-01T04:03:29.116Z,70.20
2019-03-01T04:04:29.089Z,70.30
2019-03-01T04:05:29.073Z,72.40
2019-03-01T04:06:29.084Z,74.20
2019-03-01T04:07:29.055Z,72.80
2019-03-01T04:08:29.059Z,68.80
2019-03-01T04:09:29.017Z,71.90
2019-03-01T04:10:29.018Z,74.40
2019-03-01T04:11:29.006Z,70.60
2019-03-01T04:12:28.991Z,68.80
2019-03-01T04:13:28.993Z,70.50
2019-03-01T04:14:28.961Z,73.90
2019-03-01T04:15:28.955Z,73.80
2019-03-01T04:16:28.943Z,79.00
2019-03-01T04:17:28.926Z,76.90
2019-03-01T04:18:28.951Z,77.20
2019-03-01T04:19:28.904Z,76.80
2019-03-01T04:20:28.904Z,79.40
2019-03-01T04:21:28.886Z,74.70
2019-03-01T04:22:28.871Z,77.10
2019-03-01T04:23:28.885Z,74.40
2019-03-01T04:24:28.856Z,81.80
2019-03-01T04:25:28.842Z,82.90
2019-03-01T04:26:28.834Z,76.40
2019-03-01T04:27:28.817Z,75.70
2019-03-01T04:28:28.836Z,79.60
2019-03-01T04:29:28.818Z,77.70
2019-03-01T04:30:28.797Z,80.20
2019-03-01T04:31:28.777Z,78.00
2019-03-01T04:32:28.763Z,83.00
2019-03-01T04:33:28.783Z,80.10
2019-03-01T04:34:28.752Z,79.10
2019-03-01T04:35:28.751Z,79.40
2019-03-01T04:36:28.724Z,77.80
2019-03-01T04:37:28.707Z,84.80
2019-03-01T04:38:28.732Z,80.10
2019-03-01T04:39:28.689Z,78.30
2019-03-01T04:40:28.681Z,82.90
2019-03-01T04:41:28.685Z,80.30
2019-03-01T04:42:28.651Z,90.70
2019-03-01T04:43:28.664Z,83.80
2019-03-01T04:44:28.643Z,82.20
2019-03-01T04:45:28.619Z,81.10
2019-03-01T04:46:28.612Z,82.10
2019-03-01T04:47:28.621Z,87.30
2019-03-01T04:48:28.633Z,81.50
2019-03-01T04:49:28.585Z,85.90
2019-03-01T04:50:28.565Z,80.20
2019-03-01T04:51:28.563Z,82.60
2019-03-01T04:52:28.559Z,79.20
2019-03-01T04:53:28.565Z,83.70
2019-03-01T04:54:28.520Z,80.80
2019-03-01T04:55:28.517Z,84.60
2019-03-01T04:56:28.499Z,76.90
2019-03-01T04:57:28.491Z,77.90
2019-03-01T04:58:28.528Z,78.30
2019-03-01T04:59:28.467Z,77.50
2019-03-01T05:00:28.460Z,75.40
2019-03-01T05:01:28.453Z,85.00
2019-03-01T05:02:28.436Z,78.30
2019-03-01T05:03:28.438Z,76.50
2019-03-01T05:04:28.436Z,82.70
2019-03-01T05:05:28.400Z,77.80
2019-03-01T05:06:28.400Z,75.50
2019-03-01T05:07:28.431Z,76.50
2019-03-01T05:08:28.377Z,79.80
2019-03-01T05:09:28.379Z,82.20
2019-03-01T05:10:28.351Z,79.80
2019-03-01T05:11:28.336Z,78.90
2019-03-01T05:12:28.395Z,80.10
2019-03-01T05:13:28.315Z,78.90
2019-03-01T05:14:28.328Z,83.50
2019-03-01T05:15:28.305Z,83.50
2019-03-01T05:16:28.283Z,80.30
2019-03-01T05:17:28.272Z,86.50
2019-03-01T05:18:28.312Z,78.80
2019-03-01T05:19:28.284Z,77.70
2019-03-01T05:20:30.474Z,79.40
2019-03-01T05:21:28.246Z,81.50
2019-03-01T05:22:28.215Z,82.00
2019-03-01T05:23:28.211Z,82.30
2019-03-01T05:24:28.223Z,82.10
2019-03-01T05:25:28.183Z,82.20
2019-03-01T05:26:28.188Z,79.50
2019-03-01T05:27:28.178Z,82.20
2019-03-01T05:28:28.149Z,84.50
2019-03-01T05:29:28.194Z,85.30
2019-03-01T05:30:28.128Z,84.10
2019-03-01T05:31:28.121Z,87.60
2019-03-01T05:32:28.123Z,86.00
2019-03-01T05:33:28.098Z,85.70
2019-03-01T05:34:28.126Z,87.10
2019-03-01T05:35:28.084Z,87.90
2019-03-01T05:36:28.064Z,82.80
2019-03-01T05:37:28.066Z,81.00
2019-03-01T05:38:28.054Z,84.50
2019-03-01T05:39:28.070Z,81.30
2019-03-01T05:40:28.025Z,86.40
2019-03-01T05:41:28.023Z,86.60
2019-03-01T05:42:28.001Z,88.50
2019-03-01T05:43:27.999Z,85.10
2019-03-01T05:44:28.005Z,85.80
2019-03-01T05:45:27.964Z,91.30
2019-03-01T05:46:27.959Z,86.00
2019-03-01T05:47:27.943Z,88.00
2019-03-01T05:48:27.931Z,84.50
2019-03-01T05:49:27.946Z,86.70
2019-03-01T05:50:27.929Z,83.80
2019-03-01T05:51:27.900Z,88.10
2019-03-01T05:52:27.895Z,84.90
2019-03-01T05:53:27.881Z,82.80
2019-03-01T05:54:27.907Z,87.30
2019-03-01T05:55:27.866Z,76.90
2019-03-01T05:56:27.845Z,85.40
2019-03-01T05:57:27.835Z,84.00
2019-03-01T05:58:27.840Z,91.10
2019-03-01T05:59:27.850Z,87.60
2019-03-01T06:00:27.811Z,88.90
2019-03-01T06:01:27.802Z,88.40
2019-03-01T06:02:27.782Z,89.90
2019-03-01T06:03:27.770Z,88.90
2019-03-01T06:04:27.783Z,87.70
2019-03-01T06:05:27.750Z,85.80
2019-03-01T06:06:27.755Z,89.40
2019-03-01T06:07:27.738Z,89.50
2019-03-01T06:08:27.721Z,85.60
2019-03-01T06:09:27.729Z,91.60
2019-03-01T06:10:27.712Z,87.80
2019-03-01T06:11:27.686Z,86.70
2019-03-01T06:12:27.688Z,84.30
2019-03-01T06:13:27.678Z,86.30
2019-03-01T06:14:27.682Z,87.50
2019-03-01T06:15:27.639Z,86.20
2019-03-01T06:16:27.628Z,80.90
2019-03-01T06:17:27.621Z,80.00
2019-03-01T06:18:27.633Z,85.50
2019-03-01T06:19:27.627Z,80.80
2019-03-01T06:20:27.631Z,82.60
2019-03-01T06:21:27.587Z,81.90
2019-03-01T06:22:27.566Z,81.00
2019-03-01T06:23:27.553Z,82.30
2019-03-01T06:24:27.564Z,83.90
2019-03-01T06:25:27.529Z,83.40
2019-03-01T06:26:27.520Z,82.50
2019-03-01T06:27:27.516Z,84.20
2019-03-01T06:28:27.507Z,85.40
2019-03-01T06:29:27.509Z,80.90
2019-03-01T06:30:27.506Z,81.80
2019-03-01T06:31:27.465Z,85.50
2019-03-01T06:32:27.460Z,84.10
2019-03-01T06:33:27.457Z,84.80
2019-03-01T06:34:27.473Z,82.00
2019-03-01T06:35:27.441Z,85.10
2019-03-01T06:36:27.422Z,81.50
2019-03-01T06:37:27.401Z,85.80
2019-03-01T06:38:27.391Z,84.30
2019-03-01T06:39:27.411Z,84.70
2019-03-01T06:40:27.394Z,83.70
2019-03-01T06:41:27.434Z,81.90
2019-03-01T06:42:27.372Z,81.60
2019-03-01T06:43:27.365Z,83.10
2019-03-01T06:44:27.395Z,86.80
2019-03-01T06:45:27.378Z,83.60
2019-03-01T06:46:27.318Z,83.50
2019-03-01T06:47:27.326Z,82.60
2019-03-01T06:48:27.282Z,83.30
2019-03-01T06:49:27.283Z,81.00
2019-03-01T06:50:27.319Z,83.10
2019-03-01T06:51:29.147Z,81.20
2019-03-01T06:52:27.307Z,79.70
2019-03-01T06:53:27.251Z,80.10
2019-03-01T06:54:27.237Z,80.70
2019-03-01T06:55:27.274Z,78.00
2019-03-01T06:56:27.219Z,81.40
2019-03-01T06:57:27.209Z,79.50
2019-03-01T06:58:27.208Z,81.80
2019-03-01T06:59:27.190Z,83.00
2019-03-01T07:00:27.236Z,80.10
2019-03-01T07:01:27.158Z,80.80
2019-03-01T07:02:27.157Z,76.50
2019-03-01T07:03:27.142Z,76.40
2019-03-01T07:04:37.792Z,83.90
2019-03-01T07:05:27.135Z,76.30
2019-03-01T07:06:27.094Z,76.50
2019-03-01T07:07:27.076Z,75.30
2019-03-01T07:08:27.063Z,75.80
2019-03-01T07:09:27.067Z,76.70
2019-03-01T07:10:27.076Z,78.60
2019-03-01T07:11:27.032Z,78.60
2019-03-01T07:12:27.020Z,76.90
2019-03-01T07:13:27.012Z,75.10
2019-03-01T07:14:27.012Z,73.60
2019-03-01T07:15:27.014Z,72.50
2019-03-01T07:16:26.976Z,69.20
2019-03-01T07:17:26.967Z,71.10
2019-03-01T07:18:26.955Z,68.20
2019-03-01T07:19:26.949Z,72.10
2019-03-01T07:20:26.999Z,68.50
2019-03-01T07:21:26.938Z,76.70
2019-03-01T07:22:26.918Z,70.20
2019-03-01T07:23:36.270Z,69.60
2019-03-01T07:24:27.892Z,69.20
2019-03-01T07:25:26.904Z,65.70
2019-03-01T07:26:26.882Z,69.20
2019-03-01T07:27:26.857Z,67.90
2019-03-01T07:28:26.860Z,67.10
2019-03-01T07:29:26.860Z,68.40
2019-03-01T07:30:26.856Z,67.20
2019-03-01T07:31:26.820Z,68.40
2019-03-01T07:32:26.807Z,68.00
2019-03-01T07:33:26.793Z,66.70
2019-03-01T07:34:26.791Z,65.10
2019-03-01T07:35:26.805Z,66.40
2019-03-01T07:36:26.761Z,70.80
2019-03-01T07:37:26.757Z,69.00
2019-03-01T07:38:26.745Z,68.10
2019-03-01T07:39:26.725Z,71.20
2019-03-01T07:40:26.747Z,69.60
2019-03-01T07:41:26.711Z,70.90
2019-03-01T07:42:26.702Z,67.80
2019-03-01T07:43:26.686Z,70.20
2019-03-01T07:44:26.672Z,71.10
2019-03-01T07:45:26.692Z,67.20
2019-03-01T07:46:26.653Z,67.50
2019-03-01T07:47:26.642Z,67.20
2019-03-01T07:48:26.635Z,69.80
2019-03-01T07:49:26.619Z,67.90
2019-03-01T07:50:26.639Z,69.70
2019-03-01T07:51:26.947Z,66.80
2019-03-01T07:52:26.590Z,68.70
2019-03-01T07:53:26.573Z,68.50
2019-03-01T07:54:26.566Z,66.70
2019-03-01T07:55:28.515Z,68.60
2019-03-01T07:56:26.544Z,69.70
2019-03-01T07:57:26.532Z,69.80
2019-03-01T07:58:26.811Z,67.50
2019-03-01T07:59:26.517Z,67.00
2019-03-01T08:00:26.529Z,63.50
2019-03-01T08:01:29.227Z,67.10
2019-03-01T08:02:26.486Z,65.80
2019-03-01T08:03:26.471Z,64.80
2019-03-01T08:04:28.859Z,63.30
2019-03-01T08:05:26.471Z,63.30
2019-03-01T08:06:26.445Z,64.60
2019-03-01T08:07:26.428Z,66.00
2019-03-01T08:08:26.410Z,59.80
2019-03-01T08:09:26.403Z,61.50
2019-03-01T08:10:26.418Z,63.70
2019-03-01T08:11:28.475Z,60.30
2019-03-01T08:13:38.270Z,55.20
2019-03-01T08:14:46.917Z,55.90
2019-03-01T08:15:40.779Z,58.30
2019-03-01T08:16:39.168Z,55.60
2019-03-01T08:17:38.162Z,56.00
2019-03-01T08:18:40.180Z,56.00
2019-03-01T08:19:39.134Z,60.50
2019-03-01T08:20:38.169Z,57.80
2019-03-01T08:21:38.123Z,61.50
2019-03-01T08:22:47.971Z,57.20
2019-03-01T08:23:39.101Z,58.40
2019-03-01T08:24:38.089Z,58.70
2019-03-01T08:25:38.107Z,57.40
2019-03-01T08:26:38.073Z,58.30
2019-03-01T08:27:38.058Z,60.30
2019-03-01T08:28:38.050Z,55.80
2019-03-01T08:29:40.388Z,59.00
2019-03-01T08:30:38.079Z,58.40
2019-03-01T08:31:38.025Z,56.80
2019-03-01T08:32:38.000Z,58.60
2019-03-01T08:33:42.323Z,61.70
2019-03-01T08:34:38.987Z,59.10
2019-03-01T08:35:47.542Z,57.20
2019-03-01T08:36:46.992Z,57.40
2019-03-01T08:37:37.971Z,57.70
2019-03-01T08:38:37.945Z,59.70
2019-03-01T08:39:39.801Z,60.50
2019-03-01T08:40:37.925Z,57.40
2019-03-01T08:41:37.942Z,58.20
2019-03-01T08:42:37.891Z,60.80
2019-03-01T08:43:37.889Z,60.30
2019-03-01T08:44:37.932Z,60.40
2019-03-01T08:45:37.865Z,59.60
2019-03-01T08:46:37.882Z,61.90
2019-03-01T08:47:37.853Z,61.70
2019-03-01T08:48:37.834Z,62.00
2019-03-01T08:49:37.815Z,60.40
2019-03-01T08:50:37.819Z,64.30
2019-03-01T08:51:37.821Z,58.30
2019-03-01T08:52:40.409Z,60.70
2019-03-01T08:53:37.778Z,61.90
2019-03-01T08:54:37.764Z,59.80
2019-03-01T08:55:38.950Z,58.80
2019-03-01T08:56:37.775Z,58.40
2019-03-01T08:57:44.312Z,59.30
2019-03-01T08:58:41.531Z,58.40
2019-03-01T08:59:37.711Z,57.60
2019-03-01T09:00:37.703Z,56.90
2019-03-01T09:01:37.720Z,56.30
2019-03-01T09:02:37.721Z,57.70
2019-03-01T09:03:37.668Z,58.30
2019-03-01T09:04:38.194Z,57.00
2019-03-01T09:05:37.654Z,56.90
2019-03-01T09:06:37.693Z,57.20
2019-03-01T09:07:37.625Z,55.10
2019-03-01T09:08:37.617Z,54.70
2019-03-01T09:09:37.611Z,55.50
2019-03-01T09:10:37.603Z,56.60
2019-03-01T09:11:37.619Z,55.30
2019-03-01T09:12:37.578Z,58.60
2019-03-01T09:13:37.565Z,59.10
2019-03-01T09:14:37.556Z,58.20
2019-03-01T09:15:37.549Z,60.70
2019-03-01T09:16:37.563Z,58.40
2019-03-01T09:17:37.527Z,67.00
2019-03-01T09:18:37.517Z,60.60
2019-03-01T09:19:37.504Z,86.10
2019-03-01T09:20:38.555Z,118.80
2019-03-01T09:21:39.461Z,153.70
2019-03-01T09:22:37.496Z,93.80
2019-03-01T09:23:39.526Z,67.00
2019-03-01T09:24:37.461Z,63.40
2019-03-01T09:25:37.463Z,61.40
2019-03-01T09:26:37.476Z,59.60
2019-03-01T09:27:37.434Z,63.30
2019-03-01T09:28:39.597Z,62.70
2019-03-01T09:29:41.555Z,65.90
2019-03-01T09:30:40.327Z,63.70
2019-03-01T09:31:38.422Z,61.40
2019-03-01T09:32:37.402Z,53.10
2019-03-01T09:33:37.368Z,61.40
2019-03-01T09:34:37.355Z,63.00
2019-03-01T09:35:39.720Z,54.10
2019-03-01T09:36:38.361Z,59.10
2019-03-01T09:37:37.335Z,59.90
2019-03-01T09:38:39.387Z,59.80
2019-03-01T09:39:38.308Z,66.60
2019-03-01T09:40:37.312Z,64.20
2019-03-01T09:41:40.613Z,59.80
2019-03-01T09:42:37.277Z,61.50
2019-03-01T09:43:37.271Z,61.20
2019-03-01T09:44:38.421Z,51.40
2019-03-01T09:45:37.243Z,56.70
2019-03-01T09:46:37.268Z,57.30
2019-03-01T09:47:38.020Z,59.90
2019-03-01T09:48:37.224Z,61.80
2019-03-01T09:49:37.201Z,62.80
2019-03-01T09:50:38.280Z,58.60
2019-03-01T09:51:37.217Z,53.30
2019-03-01T09:52:37.173Z,61.80
2019-03-01T09:53:37.178Z,77.20
2019-03-01T09:54:37.154Z,62.70
2019-03-01T09:55:37.575Z,92.20
2019-03-01T09:56:37.177Z,59.80
2019-03-01T09:57:37.124Z,58.80
2019-03-01T09:58:37.121Z,53.40
2019-03-01T09:59:37.102Z,56.60
2019-03-01T10:00:37.088Z,81.70
2019-03-01T10:01:37.081Z,211.60
2019-03-01T10:02:37.096Z,167.90
2019-03-01T10:03:37.059Z,191.00
2019-03-01T10:04:37.052Z,140.50
2019-03-01T10:05:37.038Z,148.60
2019-03-01T10:06:38.386Z,160.90
2019-03-01T10:07:37.054Z,90.10
2019-03-01T10:08:37.013Z,161.80
2019-03-01T10:09:36.997Z,126.20
2019-03-01T10:10:36.986Z,72.30
2019-03-01T10:11:36.966Z,77.70
2019-03-01T10:12:36.984Z,67.40
2019-03-01T10:13:36.959Z,83.30
2019-03-01T10:14:36.935Z,59.20
2019-03-01T10:15:36.933Z,90.70
2019-03-01T10:16:36.918Z,73.70
2019-03-01T10:17:36.943Z,59.30
2019-03-01T10:18:36.899Z,56.30
2019-03-01T10:19:36.881Z,109.10
2019-03-01T10:20:36.878Z,94.90
2019-03-01T10:21:36.870Z,131.50
2019-03-01T10:22:36.891Z,69.50
2019-03-01T10:23:36.847Z,55.70
2019-03-01T10:24:36.831Z,67.80
2019-03-01T10:25:36.827Z,90.20
2019-03-01T10:26:36.818Z,123.00
2019-03-01T10:27:36.839Z,90.60
2019-03-01T10:28:36.789Z,108.30
2019-03-01T10:29:36.791Z,115.50
2019-03-01T10:30:36.777Z,92.70
2019-03-01T10:31:36.776Z,121.20
2019-03-01T10:32:36.784Z,210.30
2019-03-01T10:33:36.782Z,165.30
2019-03-01T10:34:36.761Z,153.40
2019-03-01T10:35:36.739Z,77.00
2019-03-01T10:36:36.721Z,87.20
2019-03-01T10:37:36.741Z,87.70
2019-03-01T10:38:36.697Z,94.40
2019-03-01T10:39:36.688Z,111.30
2019-03-01T10:40:36.693Z,122.00
2019-03-01T10:41:36.729Z,61.50
2019-03-01T10:42:36.678Z,76.50
2019-03-01T10:43:36.641Z,75.40
2019-03-01T10:44:36.637Z,83.20
2019-03-01T10:45:36.629Z,69.90
2019-03-01T10:46:36.615Z,86.40
2019-03-01T10:47:36.636Z,86.50
2019-03-01T10:48:36.593Z,109.80
2019-03-01T10:49:36.592Z,111.10
2019-03-01T10:50:36.573Z,114.20
2019-03-01T10:51:36.598Z,82.50
2019-03-01T10:52:36.609Z,63.50
2019-03-01T10:53:36.549Z,72.40
2019-03-01T10:54:36.534Z,96.50
2019-03-01T10:55:36.549Z,98.90
2019-03-01T10:56:36.509Z,89.00
2019-03-01T10:57:36.550Z,87.20
2019-03-01T10:58:36.489Z,56.80
2019-03-01T10:59:36.474Z,108.20
2019-03-01T11:00:36.480Z,143.10
2019-03-01T11:01:36.454Z,83.10
2019-03-01T11:02:36.468Z,104.80
2019-03-01T11:03:36.441Z,87.00
2019-03-01T11:04:36.426Z,83.30
2019-03-01T11:05:36.413Z,54.00
2019-03-01T11:06:36.402Z,78.20
2019-03-01T11:07:36.419Z,75.30
2019-03-01T11:08:36.384Z,58.70
2019-03-01T11:09:36.375Z,50.70
2019-03-01T11:10:36.369Z,77.10
2019-03-01T11:11:36.346Z,61.40
2019-03-01T11:12:36.373Z,77.10
2019-03-01T11:13:36.324Z,51.60
2019-03-01T11:14:36.319Z,48.50
2019-03-01T11:15:36.314Z,56.50
2019-03-01T11:16:36.302Z,99.60
2019-03-01T11:17:36.311Z,67.00
2019-03-01T11:18:36.269Z,80.30
2019-03-01T11:19:36.258Z,76.30
2019-03-01T11:20:36.251Z,92.10
2019-03-01T11:21:36.273Z,82.40
2019-03-01T11:22:36.250Z,120.20
2019-03-01T11:23:36.243Z,101.60
2019-03-01T11:24:36.199Z,52.90
2019-03-01T11:25:36.195Z,48.90
2019-03-01T11:26:36.181Z,50.70
2019-03-01T11:27:36.205Z,50.20
2019-03-01T11:28:36.165Z,51.80
2019-03-01T11:29:36.152Z,48.40
2019-03-01T11:30:36.157Z,49.20
2019-03-01T11:31:36.142Z,49.30
2019-03-01T11:32:36.157Z,53.80
2019-03-01T11:33:36.125Z,53.00
2019-03-01T11:34:36.327Z,59.30
2019-03-01T11:35:36.097Z,59.70
2019-03-01T11:36:36.085Z,83.90
2019-03-01T11:37:36.110Z,96.10
2019-03-01T11:38:36.058Z,58.10
2019-03-01T11:39:36.051Z,81.90
2019-03-01T11:40:36.041Z,104.80
2019-03-01T11:41:36.022Z,70.40
2019-03-01T11:42:36.013Z,93.90
2019-03-01T11:43:36.034Z,94.00
2019-03-01T11:44:35.994Z,84.00
2019-03-01T11:45:35.994Z,69.90
2019-03-01T11:46:35.975Z,65.60
2019-03-01T11:47:35.967Z,77.70
2019-03-01T11:48:35.985Z,80.40
2019-03-01T11:49:35.948Z,83.60
2019-03-01T11:50:35.935Z,83.90
2019-03-01T11:51:35.928Z,85.50
2019-03-01T11:52:35.913Z,84.30
2019-03-01T11:53:35.944Z,88.40
2019-03-01T11:54:35.898Z,88.30
2019-03-01T11:55:35.898Z,91.00
2019-03-01T11:56:35.908Z,87.00
2019-03-01T11:57:35.864Z,97.90
2019-03-01T11:58:35.893Z,99.20
2019-03-01T11:59:35.835Z,90.20
2019-03-01T12:00:35.835Z,82.80
2019-03-01T12:01:35.817Z,82.70
2019-03-01T12:02:35.810Z,72.40
2019-03-01T12:03:35.844Z,81.70
2019-03-01T12:04:35.821Z,86.60
2019-03-01T12:05:35.803Z,105.30
2019-03-01T12:06:35.794Z,103.10
2019-03-01T12:07:35.756Z,92.00
2019-03-01T12:08:35.770Z,98.70
2019-03-01T12:09:35.728Z,85.90
2019-03-01T12:10:35.721Z,91.90
2019-03-01T12:11:35.718Z,119.10
2019-03-01T12:12:35.702Z,111.90
2019-03-01T12:13:35.708Z,122.70
2019-03-01T12:14:35.680Z,120.20
2019-03-01T12:15:35.665Z,113.40
2019-03-01T12:16:35.659Z,107.00
2019-03-01T12:17:35.651Z,126.20
2019-03-01T12:18:35.665Z,115.30
2019-03-01T12:19:35.623Z,111.50
2019-03-01T12:20:35.609Z,105.50
2019-03-01T12:21:35.608Z,114.70
2019-03-01T12:22:35.588Z,99.90
2019-03-01T12:23:35.606Z,98.20
2019-03-01T12:24:35.578Z,97.70
2019-03-01T12:25:35.557Z,92.10
2019-03-01T12:26:35.571Z,96.40
2019-03-01T12:27:35.546Z,92.90
2019-03-01T12:28:35.553Z,92.00
2019-03-01T12:29:35.519Z,99.90
2019-03-01T12:30:35.510Z,103.80
2019-03-01T12:31:35.506Z,105.40
2019-03-01T12:32:35.479Z,102.20
2019-03-01T12:33:35.502Z,113.30
2019-03-01T12:34:35.455Z,107.70
2019-03-01T12:35:35.442Z,107.00
2019-03-01T12:36:35.442Z,123.00
2019-03-01T12:37:35.434Z,115.00
2019-03-01T12:38:35.445Z,141.10
2019-03-01T12:39:35.406Z,119.70
2019-03-01T12:40:35.387Z,134.50
2019-03-01T12:41:35.382Z,118.50
2019-03-01T12:42:35.368Z,109.80
2019-03-01T12:43:35.386Z,92.00
2019-03-01T12:44:35.346Z,78.40
2019-03-01T12:45:35.333Z,78.60
2019-03-01T12:46:35.330Z,58.50
2019-03-01T12:47:35.321Z,63.40
2019-03-01T12:48:35.328Z,58.70
2019-03-01T12:49:35.293Z,54.30
2019-03-01T12:50:35.282Z,49.30
2019-03-01T12:51:35.272Z,63.20